• Join FlightAware (Why Join?)
  • Login
  • US Flag 
03:28PM EDT


 

Airport Tracker/Info


-or-


 

Live Flight TrackerFlight Track Log ✈ N441S ✈ 03-Jul-2013 ✈ KRAP - KTOR

Flight Track Log - Related Links

Times and Time Zones

All times are in EDT time to prevent confusion due to time zone crossing. See the N441S flight status page for this flight to view local times or setup timezone preferences in your user account.

Time Position Orientation Groundspeed Altitude Reporting Facility
EDT Latitude Longitude Course Direction KTS MPH feet Rate Location/Type
09:06AM 43.8506 -103.2008 200° South 175 201 13,900  Level Denver Center
09:07AM 43.8006 -103.2256 200° South 188 216 15,700 1,200 Climbing Denver Center
09:08AM 43.7469 -103.2567 203° Southwest 205 236 16,400 360 Climbing Denver Center
09:09AM 43.6700 -103.3025 203° Southwest 252 290 16,500  Climbing Denver Center
09:10AM 43.5975 -103.3414 201° Southwest 275 316 16,500  Level Denver Center
09:11AM 43.5117 -103.3881 202° Southwest 289 333 16,500  Level Denver Center
09:12AM 43.4367 -103.4267 200° South 298 343 16,500  Level Denver Center
09:13AM 43.3622 -103.4647 200° South 299 344 16,500  Level Denver Center
09:14AM 43.2756 -103.5119 202° Southwest 299 344 16,500  Level Denver Center
09:15AM 43.2000 -103.5531 202° Southwest 302 348 16,500  Level Denver Center
09:16AM 43.1261 -103.5936 202° Southwest 299 344 16,500  Level Denver Center
09:17AM 43.0397 -103.6400 201° Southwest 299 344 16,500  Level Denver Center
09:18AM 42.9639 -103.6797 201° Southwest 301 346 16,500 -300 Level Denver Center
09:19AM 42.8892 -103.7197 201° Southwest 301 346 15,900 -1,140 Descending Denver Center
09:20AM 42.7958 -103.7697 201° Southwest 312 359 14,200 -1,560 Descending Denver Center
09:21AM 42.7172 -103.8108 201° Southwest 316 364 12,800 -1,380 Descending Denver Center
09:22AM 42.6322 -103.8558 201° Southwest 305 351 11,400 -1,260 Descending Denver Center
09:23AM 42.5644 -103.8922 202° Southwest 289 333 10,300 -1,080 Descending Denver Center
09:24AM 42.5025 -103.9225 200° South 267 307 9,300 -900 Descending Denver Center
09:25AM 42.4333 -103.9594 202° Southwest 249 287 8,500 -840 Descending Denver Center